createdAt,value
2018-04-02T00:01:47.789Z,3.83
2018-04-02T00:04:15.567Z,3.97
2018-04-02T00:06:43.285Z,5.20
2018-04-02T00:09:10.882Z,3.60
2018-04-02T00:11:38.692Z,5.43
2018-04-02T00:14:06.409Z,4.10
2018-04-02T00:16:34.259Z,3.90
2018-04-02T00:19:01.815Z,3.93
2018-04-02T00:21:29.382Z,3.53
2018-04-02T00:23:56.996Z,4.40
2018-04-02T00:26:24.582Z,3.73
2018-04-02T00:28:52.190Z,3.50
2018-04-02T00:31:19.856Z,3.63
2018-04-02T00:33:47.417Z,4.47
2018-04-02T00:36:14.978Z,4.30
2018-04-02T00:38:42.582Z,3.57
2018-04-02T00:41:10.226Z,3.93
2018-04-02T00:43:37.811Z,4.53
2018-04-02T00:46:05.377Z,3.87
2018-04-02T00:48:32.934Z,4.77
2018-04-02T00:51:00.482Z,3.67
2018-04-02T00:53:28.091Z,5.70
2018-04-02T00:55:55.638Z,3.27
2018-04-02T00:58:23.195Z,4.77
2018-04-02T01:00:50.978Z,4.67
2018-04-02T01:03:18.534Z,3.60
2018-04-02T01:05:46.190Z,6.80
2018-04-02T01:08:13.893Z,4.20
2018-04-02T01:10:41.441Z,2.73
2018-04-02T01:13:09.015Z,3.20
2018-04-02T01:15:36.569Z,4.07
2018-04-02T01:18:04.404Z,4.50
2018-04-02T01:20:32.123Z,3.87
2018-04-02T01:22:59.680Z,3.27
2018-04-02T01:25:27.459Z,3.30
2018-04-02T01:27:55.177Z,3.20
2018-04-02T01:30:22.798Z,5.77
2018-04-02T01:32:50.345Z,4.27
2018-04-02T01:35:18.131Z,3.70
2018-04-02T01:37:45.694Z,3.60
2018-04-02T01:40:13.242Z,3.23
2018-04-02T01:42:40.858Z,3.47
2018-04-02T01:45:08.409Z,4.13
2018-04-02T01:47:35.994Z,3.50
2018-04-02T01:50:03.660Z,5.70
2018-04-02T01:52:31.456Z,3.03
2018-04-02T01:54:59.066Z,2.87
2018-04-02T01:57:26.624Z,4.20
2018-04-02T01:59:54.410Z,6.57
2018-04-02T02:02:21.998Z,5.30
2018-04-02T02:04:49.546Z,2.93
2018-04-02T02:07:17.150Z,3.97
2018-04-02T02:09:44.882Z,3.60
2018-04-02T02:12:12.449Z,5.57
2018-04-02T02:14:40.043Z,4.17
2018-04-02T02:17:07.589Z,3.37
2018-04-02T02:19:35.417Z,4.83
2018-04-02T02:22:02.970Z,4.90
2018-04-02T02:24:30.553Z,4.03
2018-04-02T02:26:58.266Z,4.03
2018-04-02T02:29:26.026Z,4.50
2018-04-02T02:31:53.737Z,4.17
2018-04-02T02:34:21.282Z,3.30
2018-04-02T02:36:48.840Z,2.47
2018-04-02T02:39:16.397Z,5.40
2018-04-02T02:41:44.005Z,3.87
2018-04-02T02:44:11.834Z,3.80
2018-04-02T02:46:39.384Z,3.50
2018-04-02T02:49:06.942Z,2.80
2018-04-02T02:51:34.531Z,3.23
2018-04-02T02:54:02.081Z,3.00
2018-04-02T02:56:29.698Z,3.93
2018-04-02T02:58:57.254Z,5.40
2018-04-02T03:01:24.848Z,4.93
2018-04-02T03:03:52.575Z,3.83
2018-04-02T03:06:20.126Z,3.60
2018-04-02T03:08:47.742Z,3.57
2018-04-02T03:11:15.306Z,4.10
2018-04-02T03:13:42.862Z,2.27
2018-04-02T03:16:10.418Z,3.83
2018-04-02T03:18:37.967Z,2.40
2018-04-02T03:21:05.579Z,4.47
2018-04-02T03:23:33.318Z,3.00
2018-04-02T03:26:01.037Z,3.27
2018-04-02T03:28:28.755Z,4.57
2018-04-02T03:30:56.322Z,3.03
2018-04-02T03:33:23.953Z,3.07
2018-04-02T03:35:51.673Z,2.53
2018-04-02T03:38:19.388Z,4.03
2018-04-02T03:40:46.951Z,2.40
2018-04-02T03:43:14.498Z,4.23
2018-04-02T03:45:42.098Z,2.63
2018-04-02T03:48:09.803Z,4.00
2018-04-02T03:50:37.394Z,2.97
2018-04-02T03:53:05.112Z,6.90
2018-04-02T03:55:32.662Z,2.83
2018-04-02T03:58:00.471Z,5.23
2018-04-02T04:00:28.192Z,4.90
2018-04-02T04:02:55.879Z,3.53
2018-04-02T04:05:23.515Z,5.07
2018-04-02T04:07:51.245Z,3.60
2018-04-02T04:10:18.847Z,3.10
2018-04-02T04:12:46.398Z,3.47
2018-04-02T04:15:13.949Z,4.70
2018-04-02T04:17:41.676Z,7.97
2018-04-02T04:20:09.226Z,4.90
2018-04-02T04:22:36.839Z,5.40
2018-04-02T04:25:04.457Z,4.57
2018-04-02T04:27:32.042Z,5.03
2018-04-02T04:29:59.695Z,7.67
2018-04-02T04:32:27.420Z,3.90
2018-04-02T04:34:55.036Z,6.50
2018-04-02T04:37:22.582Z,5.77
2018-04-02T04:39:50.135Z,2.67
2018-04-02T04:42:17.703Z,4.60
2018-04-02T04:44:45.512Z,6.37
2018-04-02T04:47:13.329Z,8.33
2018-04-02T04:49:40.883Z,7.80
2018-04-02T04:52:08.438Z,7.90
2018-04-02T04:54:36.283Z,5.57
2018-04-02T04:57:03.841Z,4.67
2018-04-02T04:59:31.471Z,4.97
2018-04-02T05:01:59.196Z,4.87
2018-04-02T05:04:26.960Z,3.40
2018-04-02T05:06:54.526Z,6.47
2018-04-02T05:09:22.073Z,5.37
2018-04-02T05:11:49.797Z,3.23
2018-04-02T05:14:17.405Z,4.37
2018-04-02T05:16:44.957Z,5.67
2018-04-02T05:19:12.535Z,8.03
2018-04-02T05:21:40.122Z,7.47
2018-04-02T05:24:07.789Z,4.90
2018-04-02T05:26:35.346Z,5.37
2018-04-02T05:29:02.910Z,4.40
2018-04-02T05:31:30.470Z,3.80
2018-04-02T05:33:58.022Z,4.07
2018-04-02T05:36:25.677Z,4.07
2018-04-02T05:38:53.282Z,2.77
2018-04-02T05:41:20.987Z,4.67
2018-04-02T05:43:48.559Z,4.13
2018-04-02T05:46:16.109Z,2.57
2018-04-02T05:48:43.878Z,2.40
2018-04-02T05:51:11.439Z,3.60
2018-04-02T05:53:39.213Z,2.40
2018-04-02T05:56:06.786Z,5.47
2018-04-02T05:58:34.344Z,3.03
2018-04-02T06:01:02.171Z,3.40
2018-04-02T06:03:29.732Z,2.20
2018-04-02T06:05:57.503Z,4.20
2018-04-02T06:08:25.221Z,2.50
2018-04-02T06:10:52.941Z,3.27
2018-04-02T06:13:20.555Z,2.53
2018-04-02T06:15:48.110Z,1.90
2018-04-02T06:18:15.784Z,2.73
2018-04-02T06:20:43.354Z,2.60
2018-04-02T06:23:10.905Z,2.20
2018-04-02T06:25:38.522Z,3.00
2018-04-02T06:28:06.094Z,3.20
2018-04-02T06:30:33.650Z,2.47
2018-04-02T06:33:01.225Z,2.40
2018-04-02T06:35:28.809Z,2.40
2018-04-02T06:37:56.415Z,1.90
2018-04-02T06:40:23.997Z,2.60
2018-04-02T06:42:51.771Z,2.20
2018-04-02T06:45:19.885Z,2.13
2018-04-02T06:47:49.558Z,3.03
2018-04-02T06:50:17.181Z,3.20
2018-04-02T06:52:44.734Z,2.23
2018-04-02T06:55:13.251Z,2.90
2018-04-02T06:57:41.546Z,3.33
2018-04-02T07:00:09.106Z,3.43
2018-04-02T07:02:36.728Z,2.90
2018-04-02T07:05:04.341Z,2.53
2018-04-02T07:07:31.894Z,3.17
2018-04-02T07:09:59.454Z,2.33
2018-04-02T07:12:27.028Z,1.63
2018-04-02T07:14:54.645Z,3.40
2018-04-02T07:17:22.492Z,1.63
2018-04-02T07:19:50.044Z,4.33
2018-04-02T07:22:17.661Z,2.00
2018-04-02T07:24:45.390Z,5.70
2018-04-02T07:27:13.151Z,1.70
2018-04-02T07:29:40.712Z,2.00
2018-04-02T07:32:08.410Z,2.00
2018-04-02T07:34:35.979Z,1.90
2018-04-02T07:37:03.557Z,1.60
2018-04-02T07:39:31.183Z,1.40
2018-04-02T07:41:58.734Z,1.40
2018-04-02T07:44:26.296Z,1.10
2018-04-02T07:46:53.853Z,2.80
2018-04-02T07:49:21.449Z,1.63
2018-04-02T07:51:49.058Z,2.00
2018-04-02T07:54:16.625Z,3.23
2018-04-02T07:56:44.174Z,2.43
2018-04-02T07:59:11.949Z,4.57
2018-04-02T08:01:39.767Z,3.23
2018-04-02T08:04:07.382Z,1.40
2018-04-02T08:06:34.985Z,1.40
2018-04-02T08:09:02.549Z,1.60
2018-04-02T08:11:30.153Z,3.23
2018-04-02T08:13:57.706Z,1.47
2018-04-02T08:16:25.299Z,1.73
2018-04-02T08:18:53.084Z,2.47
2018-04-02T08:21:20.873Z,2.00
2018-04-02T08:23:48.515Z,1.80
2018-04-02T08:26:16.098Z,1.50
2018-04-02T08:28:43.754Z,3.27
2018-04-02T08:31:11.319Z,2.10
2018-04-02T08:33:38.949Z,1.60
2018-04-02T08:36:07.590Z,1.50
2018-04-02T08:38:36.447Z,2.33
2018-04-02T08:41:04.101Z,1.83
2018-04-02T08:43:31.710Z,1.40
2018-04-02T08:46:00.084Z,3.77
2018-04-02T08:48:27.902Z,1.97
2018-04-02T08:50:55.463Z,2.20
2018-04-02T08:53:23.102Z,1.93
2018-04-02T08:55:50.787Z,2.33
2018-04-02T08:58:18.355Z,1.50
2018-04-02T09:00:46.238Z,4.43
2018-04-02T09:03:13.793Z,2.17
2018-04-02T09:05:42.211Z,1.43
2018-04-02T09:08:09.455Z,1.60
2018-04-02T09:10:37.274Z,3.20
2018-04-02T09:13:05.096Z,3.23
2018-04-02T09:15:32.811Z,1.77
2018-04-02T09:18:01.773Z,1.77
2018-04-02T09:20:29.498Z,1.40
2018-04-02T09:22:57.779Z,1.50
2018-04-02T09:25:25.354Z,4.13
2018-04-02T09:27:53.493Z,5.03
2018-04-02T09:30:21.133Z,2.60
2018-04-02T09:32:49.046Z,6.37
2018-04-02T09:35:16.764Z,2.20
2018-04-02T09:37:45.680Z,1.57
2018-04-02T09:40:13.707Z,2.23
2018-04-02T09:42:41.311Z,1.60
2018-04-02T09:45:09.191Z,1.73
2018-04-02T09:47:37.865Z,2.53
2018-04-02T09:50:05.748Z,3.33
2018-04-02T09:52:34.306Z,2.37
2018-04-02T09:55:02.228Z,1.50
2018-04-02T09:57:30.044Z,3.83
2018-04-02T09:59:57.738Z,2.20
2018-04-02T10:02:25.436Z,3.00
2018-04-02T10:04:55.943Z,2.23
2018-04-02T10:07:25.440Z,3.60
2018-04-02T10:09:53.303Z,2.10
2018-04-02T10:12:22.023Z,1.40
2018-04-02T10:14:49.559Z,2.07
2018-04-02T10:17:19.383Z,1.73
2018-04-02T10:19:47.720Z,2.40
2018-04-02T10:22:15.256Z,4.47
2018-04-02T10:24:42.896Z,2.60
2018-04-02T10:27:10.463Z,1.97
2018-04-02T10:29:38.285Z,2.83
2018-04-02T10:32:06.202Z,3.53
2018-04-02T10:34:34.409Z,4.03
2018-04-02T10:37:02.026Z,2.30
2018-04-02T10:39:29.582Z,1.83
2018-04-02T10:41:57.133Z,1.60
2018-04-02T10:44:24.737Z,3.50
2018-04-02T10:46:52.290Z,2.33
2018-04-02T10:49:19.950Z,4.97
2018-04-02T10:51:47.671Z,2.40
2018-04-02T10:54:15.390Z,1.93
2018-04-02T10:56:42.954Z,3.23
2018-04-02T10:59:10.571Z,1.70
2018-04-02T11:01:38.447Z,4.93
2018-04-02T11:04:06.038Z,1.90
2018-04-02T11:06:33.780Z,2.47
2018-04-02T11:09:01.479Z,1.60
2018-04-02T11:11:29.031Z,2.73
2018-04-02T11:13:56.652Z,2.67
2018-04-02T11:16:24.225Z,2.20
2018-04-02T11:18:51.970Z,12.67
2018-04-02T11:21:19.788Z,2.77
2018-04-02T11:23:47.398Z,2.80
2018-04-02T11:26:15.015Z,6.40
2018-04-02T11:28:42.705Z,22.40
2018-04-02T11:31:10.273Z,2.77
2018-04-02T11:33:37.970Z,1.50
2018-04-02T11:36:05.537Z,1.93
2018-04-02T11:38:33.315Z,2.97
2018-04-02T11:41:01.032Z,5.73
2018-04-02T11:43:28.850Z,2.03
2018-04-02T11:45:56.414Z,2.97
2018-04-02T11:48:24.087Z,2.93
2018-04-02T11:50:51.702Z,2.27
2018-04-02T11:53:19.423Z,3.23
2018-04-02T11:55:47.028Z,1.70
2018-04-02T11:58:14.761Z,1.93
2018-04-02T12:00:42.352Z,3.50
2018-04-02T12:03:10.108Z,2.27
2018-04-02T12:05:37.914Z,1.87
2018-04-02T12:08:05.524Z,2.50
2018-04-02T12:10:33.351Z,1.60
2018-04-02T12:13:01.042Z,2.00
2018-04-02T12:15:28.680Z,3.63
2018-04-02T12:17:56.305Z,1.23
2018-04-02T12:20:24.127Z,1.63
2018-04-02T12:22:51.710Z,1.97
2018-04-02T12:25:19.303Z,3.17
2018-04-02T12:27:46.895Z,1.40
2018-04-02T12:30:14.454Z,1.20
2018-04-02T12:32:42.018Z,2.17
2018-04-02T12:35:09.829Z,1.30
2018-04-02T12:37:37.391Z,1.27
2018-04-02T12:40:05.005Z,1.40
2018-04-02T12:42:32.583Z,1.77
2018-04-02T12:45:00.402Z,1.40
2018-04-02T12:47:28.185Z,4.40
2018-04-02T12:49:55.939Z,1.50
2018-04-02T12:52:23.549Z,1.03
2018-04-02T12:54:51.124Z,2.20
2018-04-02T12:57:18.849Z,2.10
2018-04-02T12:59:46.407Z,1.40
2018-04-02T13:02:13.954Z,1.40
2018-04-02T13:04:41.681Z,1.67
2018-04-02T13:07:09.154Z,1.30
2018-04-02T13:09:36.858Z,1.30
2018-04-02T13:12:04.441Z,3.10
2018-04-02T13:14:32.007Z,3.07
2018-04-02T13:16:59.634Z,1.50
2018-04-02T13:19:27.334Z,1.93
2018-04-02T13:21:54.894Z,1.60
2018-04-02T13:24:22.466Z,3.73
2018-04-02T13:26:50.058Z,2.73
2018-04-02T13:29:17.825Z,1.50
2018-04-02T13:31:45.382Z,1.80
2018-04-02T13:34:12.942Z,1.27
2018-04-02T13:36:40.640Z,1.50
2018-04-02T13:39:08.398Z,1.30
2018-04-02T13:41:36.216Z,2.80
2018-04-02T13:44:04.039Z,1.60
2018-04-02T13:46:31.667Z,2.23
2018-04-02T13:48:59.239Z,1.50
2018-04-02T13:51:26.817Z,1.53
2018-04-02T13:53:54.607Z,1.30
2018-04-02T13:56:22.167Z,1.40
2018-04-02T13:58:49.736Z,2.27
2018-04-02T14:01:17.560Z,1.80
2018-04-02T14:03:45.248Z,2.63
2018-04-02T14:06:12.864Z,2.60
2018-04-02T14:08:40.614Z,1.53
2018-04-02T14:11:08.223Z,1.60
2018-04-02T14:13:35.794Z,2.30
2018-04-02T14:16:03.390Z,3.47
2018-04-02T14:18:31.098Z,1.80
2018-04-02T14:20:58.650Z,3.13
2018-04-02T14:23:26.322Z,9.90
2018-04-02T14:25:53.930Z,1.70
2018-04-02T14:28:21.501Z,4.23
2018-04-02T14:30:49.383Z,1.63
2018-04-02T14:33:16.986Z,2.43
2018-04-02T14:35:44.713Z,7.20
2018-04-02T14:38:12.532Z,4.47
2018-04-02T14:40:40.463Z,3.40
2018-04-02T14:43:08.122Z,3.73
2018-04-02T14:45:35.886Z,3.33
2018-04-02T14:48:03.443Z,6.67
2018-04-02T14:50:31.046Z,9.50
2018-04-02T14:52:59.133Z,6.50
2018-04-02T14:55:26.754Z,9.27
2018-04-02T14:57:54.369Z,3.83
2018-04-02T15:00:21.970Z,10.60
2018-04-02T15:02:49.536Z,6.67
2018-04-02T15:05:17.331Z,7.00
2018-04-02T15:07:45.150Z,40.90
2018-04-02T15:10:12.721Z,4.60
2018-04-02T15:12:40.466Z,12.67
2018-04-02T15:15:08.346Z,4.87
2018-04-02T15:17:35.918Z,4.03
2018-04-02T15:20:03.617Z,4.77
2018-04-02T15:22:31.256Z,5.17
2018-04-02T15:24:58.820Z,6.90
2018-04-02T15:27:26.379Z,4.77
2018-04-02T15:29:54.011Z,4.03
2018-04-02T15:32:21.553Z,1.90
2018-04-02T15:34:49.102Z,2.40
2018-04-02T15:37:16.935Z,3.53
2018-04-02T15:39:44.486Z,3.53
2018-04-02T15:42:12.054Z,2.90
2018-04-02T15:44:39.783Z,2.77
2018-04-02T15:47:08.542Z,3.80
2018-04-02T15:49:36.098Z,12.43
2018-04-02T15:52:03.697Z,20.17
2018-04-02T15:54:31.262Z,3.50
2018-04-02T15:56:58.814Z,6.30
2018-04-02T15:59:26.631Z,3.87
2018-04-02T16:01:54.240Z,11.23
2018-04-02T16:04:21.857Z,2.97
2018-04-02T16:06:49.406Z,4.17
2018-04-02T16:09:16.955Z,2.63
2018-04-02T16:11:44.514Z,3.70
2018-04-02T16:14:12.082Z,4.20
2018-04-02T16:16:39.740Z,3.30
2018-04-02T16:19:07.302Z,7.60
2018-04-02T16:21:34.918Z,6.20
2018-04-02T16:24:02.710Z,19.07
2018-04-02T16:26:30.273Z,15.87
2018-04-02T16:28:57.842Z,6.97
2018-04-02T16:31:25.403Z,4.60
2018-04-02T16:33:52.977Z,7.17
2018-04-02T16:36:20.543Z,2.97
2018-04-02T16:38:48.292Z,3.87
2018-04-02T16:41:16.008Z,3.20
2018-04-02T16:43:43.725Z,3.37
2018-04-02T16:46:11.295Z,3.97
2018-04-02T16:48:39.090Z,3.93
2018-04-02T16:51:06.706Z,8.70
2018-04-02T16:53:34.426Z,6.80
2018-04-02T16:56:02.042Z,4.53
2018-04-02T16:58:29.761Z,7.53
2018-04-02T17:00:57.382Z,11.50
2018-04-02T17:03:25.198Z,8.80
2018-04-02T17:05:52.916Z,20.00
2018-04-02T17:08:20.524Z,5.33
2018-04-02T17:10:48.090Z,8.23
2018-04-02T17:13:15.710Z,6.53
2018-04-02T17:15:43.247Z,6.00
2018-04-02T17:18:10.806Z,3.20
2018-04-02T17:20:38.624Z,5.87
2018-04-02T17:23:06.192Z,3.90
2018-04-02T17:25:33.932Z,4.83
2018-04-02T17:28:01.598Z,5.60
2018-04-02T17:30:29.146Z,30.30
2018-04-02T17:32:56.717Z,32.70
2018-04-02T17:35:24.532Z,52.50
2018-04-02T17:37:52.111Z,11.87
2018-04-02T17:40:19.675Z,33.33
2018-04-02T17:42:47.225Z,8.07
2018-04-02T17:45:14.767Z,11.90
2018-04-02T17:47:42.506Z,11.70
2018-04-02T17:50:10.062Z,9.97
2018-04-02T17:52:37.622Z,11.13
2018-04-02T17:55:05.532Z,13.70
2018-04-02T17:57:33.083Z,28.63
2018-04-02T18:00:00.914Z,13.90
2018-04-02T18:02:28.477Z,14.03
2018-04-02T18:04:56.086Z,9.50
2018-04-02T18:07:23.749Z,7.37
2018-04-02T18:09:51.369Z,11.03
2018-04-02T18:12:18.995Z,7.70
2018-04-02T18:14:46.719Z,11.03
2018-04-02T18:17:14.290Z,11.90
2018-04-02T18:19:41.923Z,98.20
2018-04-02T18:22:09.513Z,100.13
2018-04-02T18:24:37.082Z,103.23
2018-04-02T18:27:04.667Z,38.87
2018-04-02T18:29:32.427Z,21.27
2018-04-02T18:32:00.144Z,26.80
2018-04-02T18:34:27.717Z,18.37
2018-04-02T18:36:55.293Z,12.00
2018-04-02T18:39:22.910Z,15.10
2018-04-02T18:41:50.470Z,17.97
2018-04-02T18:44:18.046Z,16.23
2018-04-02T18:46:45.646Z,18.53
2018-04-02T18:49:13.261Z,12.33
2018-04-02T18:51:40.825Z,11.33
2018-04-02T18:54:08.386Z,11.37
2018-04-02T18:56:36.013Z,10.73
2018-04-02T18:59:03.841Z,12.00
2018-04-02T19:01:31.565Z,15.00
2018-04-02T19:03:59.139Z,14.27
2018-04-02T19:06:26.714Z,21.47
2018-04-02T19:08:54.299Z,17.87
2018-04-02T19:11:21.869Z,22.23
2018-04-02T19:13:49.526Z,16.63
2018-04-02T19:16:17.267Z,20.60
2018-04-02T19:18:44.848Z,9.73
2018-04-02T19:21:12.426Z,8.37
2018-04-02T19:23:39.991Z,8.17
2018-04-02T19:26:07.552Z,12.97
2018-04-02T19:28:35.102Z,5.87
2018-04-02T19:31:02.756Z,8.93
2018-04-02T19:33:30.303Z,21.00
2018-04-02T19:35:58.009Z,57.27
2018-04-02T19:38:25.599Z,37.03
2018-04-02T19:40:53.320Z,57.30
2018-04-02T19:43:20.893Z,50.63
2018-04-02T19:45:48.647Z,24.43
2018-04-02T19:48:16.270Z,130.33
2018-04-02T19:50:43.908Z,98.57
2018-04-02T19:53:11.466Z,66.63
2018-04-02T19:55:39.213Z,88.23
2018-04-02T19:58:06.785Z,42.30
2018-04-02T20:00:34.354Z,39.87
2018-04-02T20:03:01.918Z,95.17
2018-04-02T20:05:29.545Z,36.13
2018-04-02T20:07:57.108Z,28.33
2018-04-02T20:10:24.837Z,17.93
2018-04-02T20:12:52.468Z,24.97
2018-04-02T20:15:20.199Z,8.37
2018-04-02T20:17:47.855Z,17.00
2018-04-02T20:20:15.633Z,10.47
2018-04-02T20:22:43.258Z,17.97
2018-04-02T20:25:11.069Z,11.57
2018-04-02T20:27:38.789Z,12.00
2018-04-02T20:30:06.368Z,5.10
2018-04-02T20:32:33.937Z,13.23
2018-04-02T20:35:01.537Z,8.97
2018-04-02T20:37:29.157Z,5.67
2018-04-02T20:39:56.788Z,6.53
2018-04-02T20:42:24.369Z,11.97
2018-04-02T20:44:52.118Z,11.93
2018-04-02T20:47:19.695Z,27.27
2018-04-02T20:49:47.256Z,17.50
2018-04-02T20:52:14.834Z,19.37
2018-04-02T20:54:42.390Z,24.90
2018-04-02T20:57:10.082Z,10.93
2018-04-02T20:59:37.638Z,37.27
2018-04-02T21:02:05.217Z,36.70
2018-04-02T21:04:32.791Z,46.43
2018-04-02T21:07:00.573Z,30.10
2018-04-02T21:09:28.291Z,11.57
2018-04-02T21:12:00.830Z,13.33
2018-04-02T21:14:28.413Z,18.03
2018-04-02T21:16:56.132Z,39.77
2018-04-02T21:19:23.816Z,25.20
2018-04-02T21:21:51.378Z,46.37
2018-04-02T21:24:18.939Z,33.33
2018-04-02T21:26:46.510Z,43.40
2018-04-02T21:29:14.074Z,18.93
2018-04-02T21:31:41.619Z,16.03
2018-04-02T21:34:09.151Z,12.40
2018-04-02T21:36:36.757Z,9.63
2018-04-02T21:39:06.122Z,11.00
2018-04-02T21:41:33.711Z,5.83
2018-04-02T21:44:01.270Z,4.53
2018-04-02T21:46:29.082Z,6.60
2018-04-02T21:48:56.900Z,5.70
2018-04-02T21:51:24.541Z,4.30
2018-04-02T21:53:52.140Z,4.60
2018-04-02T21:56:19.686Z,5.17
2018-04-02T21:58:47.244Z,5.50
2018-04-02T22:01:14.813Z,4.97
2018-04-02T22:03:42.607Z,6.00
2018-04-02T22:06:21.855Z,5.27
2018-04-02T22:08:49.585Z,4.00
2018-04-02T22:11:17.390Z,8.27
2018-04-02T22:13:45.024Z,5.83
2018-04-02T22:16:12.723Z,7.10
2018-04-02T22:18:40.285Z,6.43
2018-04-02T22:21:08.077Z,6.43
2018-04-02T22:23:35.897Z,5.10
2018-04-02T22:26:03.449Z,18.80
2018-04-02T22:28:31.055Z,14.40
2018-04-02T22:30:58.621Z,16.07
2018-04-02T22:33:26.174Z,8.07
2018-04-02T22:35:53.869Z,5.50
2018-04-02T22:38:21.407Z,8.27
2018-04-02T22:40:49.013Z,9.27
2018-04-02T22:43:17.802Z,10.23
2018-04-02T22:45:45.659Z,4.23
2018-04-02T22:48:13.281Z,4.37
2018-04-02T22:50:41.095Z,5.47
2018-04-02T22:53:08.658Z,7.17
2018-04-02T22:55:36.432Z,6.17
2018-04-02T22:58:03.978Z,7.20
2018-04-02T23:00:31.537Z,6.53
2018-04-02T23:02:59.386Z,6.37
2018-04-02T23:05:26.937Z,5.73
2018-04-02T23:07:54.499Z,7.97
2018-04-02T23:10:22.053Z,6.07
2018-04-02T23:12:49.860Z,7.23
2018-04-02T23:15:17.469Z,7.00
2018-04-02T23:17:45.012Z,5.43
2018-04-02T23:20:12.619Z,4.87
2018-04-02T23:22:55.988Z,3.30
2018-04-02T23:25:23.573Z,3.10
2018-04-02T23:27:51.126Z,2.47
2018-04-02T23:30:18.938Z,4.47
2018-04-02T23:32:46.552Z,3.17
2018-04-02T23:35:14.112Z,12.33
2018-04-02T23:37:41.892Z,8.33
2018-04-02T23:40:09.470Z,30.97
2018-04-02T23:42:37.031Z,39.27
2018-04-02T23:45:04.613Z,33.10
2018-04-02T23:47:32.363Z,20.63
2018-04-02T23:49:59.927Z,19.00
2018-04-02T23:52:27.548Z,13.40
2018-04-02T23:54:55.102Z,13.33
2018-04-02T23:57:22.676Z,17.57
2018-04-02T23:59:50.408Z,12.87
